Time;durP1;ratioP1;P1;durP2;ratioP2;P2;SDS_P1;SDS_P2;PMS_P1;PMS_P2;Temp;Humidity;BMP_temperature;BMP_pressure;BME280_temperature;BME280_humidity;BME280_pressure;Samples;Min_cycle;Max_cycle;Signal;HPM_P1;HPM_P2
2023/09/02 00:01:24;;;;;;;12.32;8.13;;;21.70;95.20;;;;;;4984080;28;20047;-80
2023/09/02 00:03:51;;;;;;;14.85;8.48;;;21.40;95.30;;;;;;4985196;28;20034;-82
2023/09/02 00:06:19;;;;;;;12.93;8.93;;;21.50;95.90;;;;;;4985180;28;20046;-76
2023/09/02 00:08:47;;;;;;;12.95;7.65;;;21.60;96.00;;;;;;4984260;28;20118;-81
2023/09/02 00:11:14;;;;;;;13.80;8.70;;;21.60;96.10;;;;;;4987128;28;20042;-79
2023/09/02 00:13:41;;;;;;;12.63;8.18;;;21.60;96.10;;;;;;4980402;28;20057;-81
2023/09/02 00:16:09;;;;;;;15.20;8.18;;;21.60;96.40;;;;;;4979371;28;20046;-74
2023/09/02 00:18:37;;;;;;;13.73;8.93;;;21.60;96.50;;;;;;4978943;28;20040;-82
2023/09/02 00:21:04;;;;;;;14.43;8.23;;;21.50;96.80;;;;;;4977296;28;20173;-78
2023/09/02 00:23:31;;;;;;;18.55;8.95;;;21.50;96.50;;;;;;4971607;28;20137;-76
2023/09/02 00:25:59;;;;;;;15.27;8.52;;;21.50;96.60;;;;;;4970372;28;20043;-81
2023/09/02 00:28:26;;;;;;;14.75;8.55;;;21.40;97.00;;;;;;4967907;28;20094;-83
2023/09/02 00:30:53;;;;;;;12.98;8.60;;;21.40;97.20;;;;;;4986484;28;21296;-81
2023/09/02 00:33:21;;;;;;;15.07;8.20;;;21.40;97.40;;;;;;4985582;28;20121;-82
2023/09/02 00:35:49;;;;;;;13.57;8.00;;;21.40;97.40;;;;;;4980983;28;20056;-82
2023/09/02 00:38:17;;;;;;;13.18;8.63;;;21.40;97.40;;;;;;4992077;28;20051;-88
2023/09/02 00:40:53;;;;;;;13.63;8.27;;;21.30;97.80;;;;;;4988322;28;20509;-83
2023/09/02 00:43:20;;;;;;;15.55;9.57;;;21.20;98.30;;;;;;4980086;28;20122;-80
2023/09/02 00:45:47;;;;;;;13.43;8.77;;;21.40;97.90;;;;;;4984563;28;20039;-83
2023/09/02 00:48:15;;;;;;;13.65;8.70;;;21.30;98.00;;;;;;4983841;28;20043;-84
2023/09/02 00:50:42;;;;;;;13.82;9.63;;;21.40;98.30;;;;;;4981255;28;20030;-80
2023/09/02 00:53:09;;;;;;;15.43;9.45;;;21.30;98.50;;;;;;4990063;28;20054;-83
2023/09/02 00:55:39;;;;;;;13.40;8.05;;;21.10;98.40;;;;;;4981263;28;20040;-84
2023/09/02 00:58:07;;;;;;;18.90;9.15;;;21.10;99.40;;;;;;4988080;28;20463;-83
2023/09/02 01:00:36;;;;;;;14.60;9.10;;;21.00;99.50;;;;;;4985849;28;20380;-82
2023/09/02 01:03:03;;;;;;;11.10;8.02;;;21.10;99.70;;;;;;4986695;28;20046;-85
2023/09/02 01:05:33;;;;;;;14.65;8.88;;;21.00;99.80;;;;;;4995399;28;20126;-81
2023/09/02 01:08:03;;;;;;;16.92;8.85;;;21.00;99.90;;;;;;4986046;28;20461;-83
2023/09/02 01:10:34;;;;;;;12.27;8.43;;;21.00;99.90;;;;;;4981103;28;20187;-78
2023/09/02 01:13:03;;;;;;;14.80;9.57;;;21.00;99.90;;;;;;4984668;28;20311;-81
2023/09/02 01:15:32;;;;;;;19.90;9.43;;;21.00;99.90;;;;;;4982332;28;20041;-80
2023/09/02 01:17:59;;;;;;;15.80;8.68;;;21.00;99.90;;;;;;4984038;28;20537;-81
2023/09/02 01:20:54;;;;;;;15.93;8.77;;;20.90;99.90;;;;;;4982566;28;20038;-81
2023/09/02 01:23:45;;;;;;;12.57;8.93;;;21.00;99.90;;;;;;4973321;28;20050;-83
2023/09/02 01:26:27;;;;;;;15.05;9.45;;;21.00;99.90;;;;;;4978747;28;20038;-80
2023/09/02 01:29:00;;;;;;;14.68;9.60;;;20.80;99.90;;;;;;4982482;28;20042;-82
2023/09/02 01:31:30;;;;;;;18.63;8.93;;;20.70;99.90;;;;;;4988338;28;20098;-82
2023/09/02 01:33:59;;;;;;;13.30;8.80;;;21.00;99.90;;;;;;4982718;28;20039;-80
2023/09/02 01:36:28;;;;;;;15.75;9.35;;;21.00;99.90;;;;;;4968385;28;20422;-85
2023/09/02 01:38:57;;;;;;;13.43;9.73;;;20.70;99.90;;;;;;4986602;28;20505;-84
2023/09/02 01:41:27;;;;;;;18.35;9.77;;;20.50;99.90;;;;;;4992012;28;20062;-83
2023/09/02 01:43:55;;;;;;;16.93;8.93;;;20.60;99.90;;;;;;4982612;28;20035;-80
2023/09/02 01:46:23;;;;;;;13.05;9.45;;;20.60;99.90;;;;;;4988788;28;20094;-80
2023/09/02 01:48:50;;;;;;;16.02;9.82;;;20.50;99.90;;;;;;4971568;28;20098;-82
2023/09/02 01:51:20;;;;;;;15.85;10.10;;;19.90;99.90;;;;;;4981554;28;20053;-80
2023/09/02 01:53:47;;;;;;;12.23;8.63;;;20.00;99.90;;;;;;4981595;28;20057;-81
2023/09/02 01:56:15;;;;;;;12.50;8.82;;;20.30;99.90;;;;;;4979153;28;20480;-81
2023/09/02 01:58:42;;;;;;;14.07;9.18;;;20.60;99.90;;;;;;4998114;28;20046;-81
2023/09/02 02:01:10;;;;;;;13.48;9.43;;;20.60;99.90;;;;;;4983917;28;20042;-81
2023/09/02 02:03:52;;;;;;;16.45;9.43;;;20.50;99.90;;;;;;4980224;28;20043;-83
2023/09/02 02:06:23;;;;;;;14.55;9.25;;;20.50;99.90;;;;;;4982255;28;20038;-78
2023/09/02 02:09:12;;;;;;;;;;;20.60;99.90;;;;;;4955381;28;20051;-85
2023/09/02 02:11:40;;;;;;;16.05;9.60;;;20.60;99.90;;;;;;4986685;28;19932;-83
2023/09/02 02:14:09;;;;;;;13.50;9.05;;;20.50;99.90;;;;;;4988394;28;20406;-82
2023/09/02 02:16:37;;;;;;;19.20;10.48;;;20.50;99.90;;;;;;4990081;28;20057;-86
2023/09/02 02:19:04;;;;;;;17.38;9.95;;;20.60;99.90;;;;;;4997343;28;20047;-81
2023/09/02 02:21:32;;;;;;;16.92;9.63;;;20.60;99.90;;;;;;4992003;28;20039;-85
2023/09/02 02:23:59;;;;;;;14.32;9.65;;;20.50;99.90;;;;;;4988913;28;20122;-80
2023/09/02 02:26:27;;;;;;;16.80;9.95;;;20.40;99.90;;;;;;4982438;28;20406;-74
2023/09/02 02:28:54;;;;;;;13.50;8.93;;;20.50;99.90;;;;;;4987693;28;20035;-79
2023/09/02 02:31:21;;;;;;;13.63;8.68;;;20.50;99.90;;;;;;4987739;28;20043;-80
2023/09/02 02:33:49;;;;;;;16.35;9.13;;;20.50;99.90;;;;;;4984534;28;20406;-81
2023/09/02 02:36:16;;;;;;;16.92;9.60;;;20.60;99.90;;;;;;4988359;28;20117;-81
2023/09/02 02:38:43;;;;;;;14.02;9.10;;;20.40;99.90;;;;;;4984584;28;20054;-82
2023/09/02 02:41:10;;;;;;;16.23;9.30;;;20.40;99.90;;;;;;4979329;28;20399;-76
2023/09/02 02:43:38;;;;;;;14.13;9.57;;;20.50;99.90;;;;;;4986156;28;20118;-82
2023/09/02 02:46:05;;;;;;;16.02;9.27;;;20.40;99.90;;;;;;4982852;28;20048;-76
2023/09/02 02:48:32;;;;;;;16.25;9.57;;;20.30;99.90;;;;;;4984573;28;20434;-82
2023/09/02 02:50:59;;;;;;;15.30;9.18;;;20.40;99.90;;;;;;4999014;28;20042;-75
2023/09/02 02:53:27;;;;;;;14.57;9.90;;;20.40;99.90;;;;;;4981866;28;20076;-81
2023/09/02 02:55:54;;;;;;;15.15;9.40;;;20.30;99.90;;;;;;4986142;28;20114;-80
2023/09/02 02:58:22;;;;;;;15.43;9.10;;;20.10;99.90;;;;;;4986471;28;20046;-79
2023/09/02 03:00:49;;;;;;;15.10;9.70;;;20.00;99.90;;;;;;5000102;28;20046;-80
2023/09/02 03:03:17;;;;;;;14.80;9.88;;;20.10;99.90;;;;;;4981336;28;20038;-81
2023/09/02 03:05:45;;;;;;;15.55;10.00;;;20.20;99.90;;;;;;4985793;28;20035;-76
2023/09/02 03:08:12;;;;;;;15.32;9.45;;;20.20;99.90;;;;;;4985243;28;20094;-80
2023/09/02 03:10:39;;;;;;;17.05;10.40;;;20.20;99.90;;;;;;4988251;28;20039;-81
2023/09/02 03:13:07;;;;;;;16.92;10.80;;;20.20;99.90;;;;;;4979926;28;20513;-80
2023/09/02 03:15:34;;;;;;;15.65;10.27;;;20.10;99.90;;;;;;4985084;28;20043;-78
2023/09/02 03:18:01;;;;;;;14.18;9.30;;;19.90;99.90;;;;;;4984515;28;20062;-82
2023/09/02 03:20:29;;;;;;;14.18;10.30;;;19.90;99.90;;;;;;4983596;28;20054;-81
2023/09/02 03:22:56;;;;;;;15.75;10.07;;;20.10;99.90;;;;;;4981714;28;20069;-80
2023/09/02 03:25:26;;;;;;;15.73;9.98;;;20.00;99.90;;;;;;4984204;28;20046;-80
2023/09/02 03:27:53;;;;;;;13.55;9.88;;;20.00;99.90;;;;;;4981229;28;20433;-83
2023/09/02 03:30:20;;;;;;;17.33;9.73;;;20.00;99.90;;;;;;4984540;28;20078;-84
2023/09/02 03:32:47;;;;;;;16.55;9.95;;;20.00;99.90;;;;;;4984747;28;20050;-83
2023/09/02 03:35:15;;;;;;;20.70;10.40;;;20.00;99.90;;;;;;4982587;28;20062;-84
2023/09/02 03:37:45;;;;;;;15.23;10.27;;;19.90;99.90;;;;;;4990458;28;20514;-83
2023/09/02 03:40:12;;;;;;;18.80;10.77;;;20.00;99.90;;;;;;4986579;28;20589;-82
2023/09/02 03:42:39;;;;;;;15.55;10.38;;;20.00;99.90;;;;;;4987122;28;20043;-80
2023/09/02 03:45:09;;;;;;;16.70;10.38;;;19.90;99.90;;;;;;4975897;28;20071;-80
2023/09/02 03:47:36;;;;;;;15.27;10.83;;;19.90;99.90;;;;;;4987119;28;20482;-85
2023/09/02 03:50:04;;;;;;;16.02;10.93;;;20.00;99.90;;;;;;4985469;28;20509;-82
2023/09/02 03:52:32;;;;;;;21.70;11.38;;;20.00;99.90;;;;;;4988996;28;20051;-82
2023/09/02 03:54:59;;;;;;;21.00;10.80;;;19.70;99.90;;;;;;4982314;28;20122;-76
2023/09/02 03:57:26;;;;;;;19.83;10.45;;;19.70;99.90;;;;;;4984461;28;20382;-81
2023/09/02 03:59:53;;;;;;;18.20;10.98;;;19.50;99.90;;;;;;4988971;28;20524;-82
2023/09/02 04:02:21;;;;;;;23.48;11.30;;;19.30;99.90;;;;;;4985149;28;20049;-84
2023/09/02 04:04:48;;;;;;;22.60;12.50;;;19.10;99.90;;;;;;4984768;28;20441;-80
2023/09/02 04:07:15;;;;;;;17.02;11.25;;;19.30;99.90;;;;;;4986911;28;20046;-80
2023/09/02 04:09:42;;;;;;;14.88;10.60;;;19.50;99.90;;;;;;4980645;28;20034;-80
2023/09/02 04:12:10;;;;;;;17.48;10.63;;;19.60;99.90;;;;;;4983121;28;20042;-82
2023/09/02 04:14:38;;;;;;;17.13;11.15;;;19.50;99.90;;;;;;4986406;28;20042;-80
2023/09/02 04:17:05;;;;;;;19.98;12.00;;;19.40;99.90;;;;;;4967064;28;20491;-78
2023/09/02 04:19:33;;;;;;;18.92;12.20;;;19.60;99.90;;;;;;4982460;28;20046;-82
2023/09/02 04:22:00;;;;;;;15.38;11.32;;;19.80;99.90;;;;;;4991050;28;20437;-82
2023/09/02 04:24:28;;;;;;;20.63;12.68;;;19.80;99.90;;;;;;4984302;28;20070;-80
2023/09/02 04:26:57;;;;;;;17.83;12.05;;;19.70;99.90;;;;;;4987399;28;20043;-75
2023/09/02 04:29:24;;;;;;;20.17;12.48;;;19.70;99.90;;;;;;4984971;28;20043;-82
2023/09/02 04:31:52;;;;;;;20.17;12.23;;;19.80;99.90;;;;;;4983921;28;20076;-81
2023/09/02 04:34:19;;;;;;;14.85;10.63;;;19.80;99.90;;;;;;4989384;28;20031;-84
2023/09/02 04:36:46;;;;;;;15.95;10.57;;;19.80;99.90;;;;;;4986274;28;20129;-78
2023/09/02 04:39:14;;;;;;;18.58;9.93;;;19.70;99.90;;;;;;4985701;28;20053;-81
2023/09/02 04:41:41;;;;;;;15.40;10.27;;;19.60;99.90;;;;;;4986824;28;20407;-82
2023/09/02 04:44:08;;;;;;;14.23;10.27;;;19.60;99.90;;;;;;4983736;28;20125;-82
2023/09/02 04:46:36;;;;;;;14.20;10.23;;;19.70;99.90;;;;;;4976035;28;20411;-82
2023/09/02 04:49:04;;;;;;;14.43;10.27;;;19.60;99.90;;;;;;4989288;28;20050;-84
2023/09/02 04:51:33;;;;;;;17.88;11.60;;;19.70;99.90;;;;;;4992152;28;20052;-80
2023/09/02 04:54:00;;;;;;;21.13;12.02;;;19.70;99.90;;;;;;4951118;28;20046;-82
2023/09/02 04:56:28;;;;;;;18.35;11.45;;;19.60;99.90;;;;;;4986068;28;20117;-79
2023/09/02 04:58:55;;;;;;;14.90;10.73;;;19.80;99.90;;;;;;4984379;28;20045;-81
2023/09/02 05:01:23;;;;;;;20.98;11.55;;;20.10;99.90;;;;;;4977540;28;20034;-83
2023/09/02 05:03:50;;;;;;;19.70;11.68;;;20.10;99.90;;;;;;4967516;28;20052;-83
2023/09/02 05:06:17;;;;;;;16.92;10.25;;;20.10;99.90;;;;;;4988020;28;20060;-81
2023/09/02 05:08:44;;;;;;;15.30;10.13;;;20.10;99.90;;;;;;4989262;28;20051;-78
2023/09/02 05:11:12;;;;;;;19.08;11.88;;;20.20;99.90;;;;;;4985994;28;20038;-82
2023/09/02 05:13:40;;;;;;;17.10;10.05;;;20.20;99.90;;;;;;4991531;28;20043;-82
2023/09/02 05:16:07;;;;;;;13.88;9.25;;;20.30;99.90;;;;;;4989595;28;20046;-80
2023/09/02 05:18:34;;;;;;;14.35;10.10;;;20.30;99.90;;;;;;4990356;28;20050;-85
2023/09/02 05:21:02;;;;;;;15.43;9.85;;;20.40;99.90;;;;;;4974713;28;20097;-80
2023/09/02 05:23:29;;;;;;;21.50;10.38;;;20.50;99.90;;;;;;4971040;28;20097;-80
2023/09/02 05:25:57;;;;;;;26.05;10.65;;;20.60;99.90;;;;;;4984005;28;20073;-77
2023/09/02 05:28:25;;;;;;;18.92;11.00;;;20.70;99.90;;;;;;4979362;28;20443;-79
2023/09/02 05:30:52;;;;;;;15.95;10.40;;;20.60;99.90;;;;;;4966885;28;20034;-81
2023/09/02 05:33:19;;;;;;;16.63;10.45;;;20.70;99.90;;;;;;4968682;28;20045;-83
2023/09/02 05:35:48;;;;;;;27.48;15.98;;;20.70;99.90;;;;;;4981199;28;20043;-80
2023/09/02 05:38:15;;;;;;;70.07;46.38;;;20.60;99.90;;;;;;4986131;28;20051;-85
2023/09/02 05:40:43;;;;;;;39.80;27.42;;;20.60;99.90;;;;;;4990264;28;20121;-85
2023/09/02 05:43:13;;;;;;;37.55;26.27;;;20.80;99.90;;;;;;4981976;28;20055;-83
2023/09/02 05:45:40;;;;;;;56.55;37.38;;;20.80;99.90;;;;;;4978391;28;20066;-85
2023/09/02 05:48:08;;;;;;;44.55;29.10;;;21.00;99.90;;;;;;4947925;28;20050;-87
2023/09/02 05:50:35;;;;;;;87.22;51.17;;;21.10;99.90;;;;;;4983843;28;20031;-85
2023/09/02 05:53:02;;;;;;;43.13;28.70;;;21.30;99.90;;;;;;4989886;28;20118;-74
2023/09/02 05:55:31;;;;;;;28.20;19.63;;;21.30;99.90;;;;;;4954077;28;20049;-88
2023/09/02 05:57:58;;;;;;;32.20;20.42;;;21.40;99.90;;;;;;4983045;28;20042;-89
2023/09/02 06:00:25;;;;;;;21.40;14.57;;;21.50;99.90;;;;;;4983259;28;20034;-73
2023/09/02 06:02:53;;;;;;;22.58;13.57;;;21.40;99.90;;;;;;4957659;28;20429;-75
2023/09/02 06:05:20;;;;;;;19.73;12.90;;;21.40;99.90;;;;;;4982128;28;20561;-77
2023/09/02 06:07:49;;;;;;;21.05;13.32;;;21.10;99.90;;;;;;4968147;28;20047;-76
2023/09/02 06:10:16;;;;;;;16.10;11.43;;;21.20;99.90;;;;;;4959823;28;20501;-83
2023/09/02 06:13:02;;;;;;;19.70;12.35;;;21.10;99.90;;;;;;4957526;28;20130;-74
2023/09/02 06:15:29;;;;;;;16.15;11.77;;;21.20;99.90;;;;;;4986917;28;20045;-84
2023/09/02 06:17:57;;;;;;;119.97;71.85;;;21.30;99.90;;;;;;4972754;28;20047;-87
2023/09/02 06:20:24;;;;;;;35.42;25.27;;;21.40;99.90;;;;;;4969978;28;20034;-86
2023/09/02 06:22:51;;;;;;;55.80;35.75;;;21.50;99.90;;;;;;4966654;28;20071;-85
2023/09/02 06:25:18;;;;;;;51.28;37.03;;;21.50;99.90;;;;;;4971611;28;20034;-86
2023/09/02 06:27:46;;;;;;;20.75;15.25;;;21.60;99.90;;;;;;4989583;28;20133;-82
2023/09/02 06:30:14;;;;;;;24.83;14.05;;;21.60;99.90;;;;;;4978338;28;20495;-80
2023/09/02 06:32:41;;;;;;;15.10;11.13;;;21.80;99.90;;;;;;4965724;28;20113;-82
2023/09/02 06:35:12;;;;;;;18.85;11.65;;;21.70;99.90;;;;;;4986878;28;20084;-77
2023/09/02 06:37:39;;;;;;;16.58;11.18;;;21.80;99.90;;;;;;4946243;28;20145;-77
2023/09/02 06:40:07;;;;;;;16.17;10.80;;;21.80;99.90;;;;;;4987094;28;20046;-77
2023/09/02 06:42:34;;;;;;;18.17;11.07;;;21.80;99.90;;;;;;4966638;28;20047;-77
2023/09/02 06:45:02;;;;;;;15.25;9.98;;;21.70;99.90;;;;;;4982468;28;20061;-78
2023/09/02 06:47:30;;;;;;;22.08;10.98;;;21.80;99.90;;;;;;4980198;28;20038;-77
2023/09/02 06:49:57;;;;;;;16.27;10.32;;;21.90;99.90;;;;;;4964429;28;20061;-80
2023/09/02 06:52:24;;;;;;;15.90;10.38;;;22.10;99.90;;;;;;4982474;28;20041;-78
2023/09/02 06:54:51;;;;;;;15.88;10.70;;;22.20;99.90;;;;;;4986295;28;20046;-80
2023/09/02 06:57:19;;;;;;;18.60;9.93;;;22.30;99.90;;;;;;4985888;28;20046;-83
2023/09/02 06:59:47;;;;;;;32.05;10.65;;;22.30;99.90;;;;;;4985120;28;20035;-78
2023/09/02 07:02:14;;;;;;;20.08;11.57;;;22.20;99.90;;;;;;4990710;28;20053;-77
2023/09/02 07:04:41;;;;;;;21.70;10.48;;;22.10;99.90;;;;;;4984019;28;20097;-79
2023/09/02 07:07:08;;;;;;;13.88;10.07;;;22.30;99.90;;;;;;4982571;28;20448;-79
2023/09/02 07:09:35;;;;;;;17.83;11.15;;;22.50;99.90;;;;;;4982450;28;20545;-80
2023/09/02 07:12:03;;;;;;;13.80;9.85;;;22.50;99.90;;;;;;4984513;28;20094;-78
2023/09/02 07:14:30;;;;;;;16.20;10.82;;;22.50;99.90;;;;;;4989101;28;20042;-78
2023/09/02 07:16:58;;;;;;;16.75;12.05;;;22.60;99.90;;;;;;4972774;28;20074;-83
2023/09/02 07:19:25;;;;;;;16.50;11.23;;;22.70;99.90;;;;;;4971271;28;20057;-77
2023/09/02 07:21:56;;;;;;;14.95;10.13;;;22.70;99.90;;;;;;4984044;28;20073;-78
2023/09/02 07:24:25;;;;;;;15.18;10.45;;;22.90;99.90;;;;;;4986728;28;20062;-75
2023/09/02 07:26:52;;;;;;;15.52;10.93;;;23.00;99.90;;;;;;4984011;28;20375;-77
2023/09/02 07:29:19;;;;;;;16.42;10.27;;;23.20;99.90;;;;;;4946584;28;20064;-77
2023/09/02 07:31:47;;;;;;;13.20;9.57;;;23.30;99.90;;;;;;4952497;28;20045;-79
2023/09/02 07:34:15;;;;;;;14.63;9.35;;;23.30;99.90;;;;;;4988709;28;20125;-79
2023/09/02 07:36:42;;;;;;;17.15;10.70;;;23.30;99.90;;;;;;4985138;28;20109;-80
2023/09/02 07:39:10;;;;;;;16.38;11.00;;;23.30;99.90;;;;;;4985265;28;20570;-80
2023/09/02 07:41:37;;;;;;;13.13;10.20;;;23.20;99.90;;;;;;4999479;28;20057;-78
2023/09/02 07:44:05;;;;;;;16.40;10.75;;;23.30;99.90;;;;;;4984741;28;20049;-81
2023/09/02 07:46:32;;;;;;;14.98;11.80;;;23.50;99.90;;;;;;4987027;28;20042;-82
2023/09/02 07:48:59;;;;;;;16.10;10.93;;;23.50;99.90;;;;;;4988799;28;20505;-82
2023/09/02 07:51:27;;;;;;;17.13;10.60;;;23.50;99.70;;;;;;4979960;28;20070;-79
2023/09/02 07:53:54;;;;;;;36.78;25.98;;;23.60;99.60;;;;;;4992375;28;20061;-81
2023/09/02 07:56:22;;;;;;;51.50;39.78;;;23.70;99.40;;;;;;4997929;28;20432;-83
2023/09/02 07:58:51;;;;;;;22.85;16.50;;;23.80;99.20;;;;;;4983780;28;20048;-83
2023/09/02 08:01:20;;;;;;;19.30;13.95;;;23.70;99.20;;;;;;4989906;28;20046;-80
2023/09/02 08:03:48;;;;;;;21.30;11.55;;;23.80;99.10;;;;;;4990809;28;20790;-83
2023/09/02 08:06:16;;;;;;;13.60;10.57;;;24.00;98.80;;;;;;4991766;28;20686;-80
2023/09/02 08:08:45;;;;;;;15.57;10.88;;;24.00;98.50;;;;;;4986503;28;20459;-82
2023/09/02 08:11:18;;;;;;;14.50;10.60;;;24.00;98.40;;;;;;4983596;28;20070;-80
2023/09/02 08:13:46;;;;;;;17.92;11.05;;;23.80;98.40;;;;;;4975855;28;20042;-79
2023/09/02 08:16:13;;;;;;;18.00;11.43;;;23.90;98.50;;;;;;4981189;28;20125;-82
2023/09/02 08:18:41;;;;;;;12.80;10.27;;;24.10;97.90;;;;;;4983244;28;20129;-83
2023/09/02 08:21:10;;;;;;;18.10;12.68;;;24.10;98.00;;;;;;4987118;28;20133;-81
2023/09/02 08:23:38;;;;;;;50.75;35.58;;;24.30;97.80;;;;;;4982498;28;20055;-81
2023/09/02 08:26:12;;;;;;;29.00;20.45;;;24.50;97.50;;;;;;4982651;28;20126;-83
2023/09/02 08:28:41;;;;;;;15.68;11.82;;;24.50;97.10;;;;;;4968492;28;20093;-80
2023/09/02 08:31:16;;;;;;;23.83;15.07;;;24.70;96.70;;;;;;4990427;28;20065;-82
2023/09/02 08:33:44;;;;;;;34.22;24.23;;;24.80;96.20;;;;;;4970102;28;20073;-87
2023/09/02 08:36:17;;;;;;;37.90;28.85;;;24.90;96.00;;;;;;4989768;28;20058;-82
2023/09/02 08:38:47;;;;;;;21.92;13.15;;;25.00;95.70;;;;;;4986548;28;20098;-89
2023/09/02 08:41:27;;;;;;;17.08;11.38;;;25.10;95.30;;;;;;5000606;28;20039;-86
2023/09/02 08:44:02;;;;;;;17.10;11.05;;;25.30;95.30;;;;;;4992705;28;20061;-84
2023/09/02 08:46:32;;;;;;;13.27;11.00;;;25.40;94.80;;;;;;4972199;28;20105;-82
2023/09/02 08:49:10;;;;;;;13.80;9.50;;;25.40;94.30;;;;;;4967237;28;20047;-86
2023/09/02 08:51:38;;;;;;;14.35;9.18;;;25.60;94.10;;;;;;4990571;28;20065;-80
2023/09/02 08:54:10;;;;;;;11.63;9.23;;;25.80;93.70;;;;;;4970870;28;20045;-85
2023/09/02 08:56:42;;;;;;;12.88;9.77;;;25.90;93.10;;;;;;4964494;28;20050;-86
2023/09/02 08:59:15;;;;;;;13.45;8.80;;;26.00;92.80;;;;;;4971252;28;20681;-78
2023/09/02 09:01:45;;;;;;;13.48;8.05;;;26.10;91.90;;;;;;4990273;28;20035;-81
2023/09/02 09:04:17;;;;;;;11.52;8.57;;;26.10;92.20;;;;;;4988569;28;20609;-84
2023/09/02 09:06:44;;;;;;;13.93;8.40;;;26.20;91.70;;;;;;4993444;28;20053;-78
2023/09/02 09:09:14;;;;;;;12.20;9.10;;;26.30;91.00;;;;;;4987998;28;20046;-85
2023/09/02 09:11:43;;;;;;;24.95;8.88;;;26.30;90.60;;;;;;4973313;28;20061;-87
2023/09/02 09:14:19;;;;;;;11.02;8.93;;;26.20;90.40;;;;;;4972792;28;20058;-83
2023/09/02 09:16:53;;;;;;;11.85;8.00;;;26.30;90.30;;;;;;4990149;28;20129;-80
2023/09/02 09:19:23;;;;;;;12.95;9.63;;;26.50;90.00;;;;;;4988810;28;20065;-80
2023/09/02 09:21:50;;;;;;;11.75;7.80;;;26.80;87.80;;;;;;4978302;28;20097;-76
2023/09/02 09:24:17;;;;;;;11.57;7.32;;;26.90;86.10;;;;;;4969609;28;20042;-81
2023/09/02 09:26:45;;;;;;;11.30;7.60;;;26.80;85.60;;;;;;4976240;28;20034;-82
2023/09/02 09:29:16;;;;;;;9.27;7.22;;;26.80;85.50;;;;;;4972664;28;20078;-83
2023/09/02 09:31:44;;;;;;;10.20;7.70;;;26.80;84.70;;;;;;4967059;28;20050;-82
2023/09/02 09:34:13;;;;;;;9.50;7.30;;;26.90;84.10;;;;;;4987272;28;20469;-81
2023/09/02 09:36:41;;;;;;;9.73;6.75;;;26.80;82.60;;;;;;4982819;28;20093;-78
2023/09/02 09:39:10;;;;;;;10.45;7.88;;;26.90;82.80;;;;;;4991221;28;20413;-83
2023/09/02 09:41:48;;;;;;;8.82;6.97;;;27.00;82.70;;;;;;4988879;28;20043;-82
2023/09/02 09:44:17;;;;;;;10.57;7.22;;;27.20;82.20;;;;;;4984191;28;20051;-86
2023/09/02 09:46:53;;;;;;;11.30;7.10;;;27.50;81.00;;;;;;4953730;28;20067;-87
2023/09/02 09:49:27;;;;;;;10.60;6.85;;;27.70;80.80;;;;;;4979347;28;20042;-79
2023/09/02 09:52:09;;;;;;;8.88;6.95;;;27.80;78.50;;;;;;4987982;28;20039;-83
2023/09/02 09:54:45;;;;;;;9.38;6.75;;;27.70;79.00;;;;;;4991514;28;20398;-80
2023/09/02 09:57:30;;;;;;;9.70;7.15;;;27.70;78.40;;;;;;4975687;28;20059;-75
2023/09/02 09:59:58;;;;;;;9.32;6.50;;;27.90;77.20;;;;;;4992249;28;20050;-82
2023/09/02 10:02:26;;;;;;;10.10;7.10;;;28.00;77.00;;;;;;4969697;28;20141;-82
2023/09/02 10:04:56;;;;;;;10.57;7.45;;;28.10;76.60;;;;;;4985511;28;20046;-82
2023/09/02 10:07:33;;;;;;;10.55;6.80;;;28.10;76.70;;;;;;4986794;28;20053;-77
2023/09/02 10:10:04;;;;;;;12.90;7.50;;;28.30;76.00;;;;;;4981917;28;20571;-81
2023/09/02 10:12:33;;;;;;;11.10;7.68;;;28.30;75.70;;;;;;4963368;28;20058;-82
2023/09/02 10:15:06;;;;;;;12.05;7.18;;;28.30;75.50;;;;;;4988145;28;20069;-84
2023/09/02 10:17:37;;;;;;;10.80;6.78;;;28.40;75.10;;;;;;4986652;28;20042;-83
2023/09/02 10:20:08;;;;;;;10.73;7.60;;;28.60;75.20;;;;;;4982682;28;20039;-76
2023/09/02 10:22:42;;;;;;;11.23;6.97;;;28.60;74.50;;;;;;4947296;28;20112;-83
2023/09/02 10:25:24;;;;;;;11.20;7.45;;;28.80;74.70;;;;;;4981613;28;20038;-82
2023/09/02 10:28:03;;;;;;;11.52;7.40;;;29.00;74.60;;;;;;4989532;28;20043;-83
2023/09/02 10:30:47;;;;;;;9.93;7.00;;;28.90;73.70;;;;;;4973057;28;20039;-78
2023/09/02 10:33:20;;;;;;;10.32;7.75;;;28.80;73.50;;;;;;4975521;28;20118;-85
2023/09/02 10:36:00;;;;;;;9.18;6.97;;;29.00;73.80;;;;;;4983805;28;20058;-82
2023/09/02 10:38:32;;;;;;;9.52;6.53;;;29.00;71.90;;;;;;4970789;28;20335;-75
2023/09/02 10:41:16;;;;;;;12.40;7.35;;;29.00;71.20;;;;;;4994893;28;20066;-76
2023/09/02 10:44:37;;;;;;;10.05;6.78;;;29.10;71.20;;;;;;4997436;28;20055;-76
2023/09/02 10:47:42;;;;;;;10.85;8.60;;;29.30;71.80;;;;;;5006284;28;20028;-78
2023/09/02 10:50:11;;;;;;;14.98;12.18;;;29.50;71.40;;;;;;4987844;28;20099;-76
2023/09/02 10:52:40;;;;;;;9.55;7.70;;;29.70;71.70;;;;;;4988595;28;20042;-80
2023/09/02 10:55:09;;;;;;;9.73;6.65;;;29.80;70.00;;;;;;5006645;28;20266;-78
2023/09/02 10:57:51;;;;;;;10.35;7.13;;;29.80;69.40;;;;;;5013264;28;20538;-83
2023/09/02 11:00:27;;;;;;;10.57;7.20;;;29.90;69.20;;;;;;4986029;28;20043;-83
2023/09/02 11:03:02;;;;;;;12.50;8.55;;;30.20;69.90;;;;;;4991492;28;20085;-82
2023/09/02 11:06:19;;;;;;;35.80;26.05;;;30.50;70.40;;;;;;4986744;28;20052;-83
2023/09/02 11:08:50;;;;;;;52.00;36.97;;;30.70;68.10;;;;;;4947855;28;20094;-76
2023/09/02 11:11:19;;;;;;;51.75;37.70;;;30.80;69.10;;;;;;4993420;28;20050;-76
2023/09/02 11:14:05;;;;;;;10.98;8.60;;;30.80;67.10;;;;;;4982629;28;20740;-76
2023/09/02 11:16:35;;;;;;;29.90;22.15;;;30.90;64.80;;;;;;4997054;28;20691;-79
2023/09/02 11:19:09;;;;;;;12.63;8.75;;;30.90;66.40;;;;;;4995783;28;20178;-78
2023/09/02 11:21:57;;;;;;;13.48;9.18;;;31.00;64.40;;;;;;4985266;28;20101;-80
2023/09/02 11:24:48;;;;;;;13.27;9.07;;;30.60;65.00;;;;;;4985395;28;20058;-77
2023/09/02 11:27:15;;;;;;;28.88;21.88;;;31.00;65.00;;;;;;4985640;28;20375;-76
2023/09/02 11:29:42;;;;;;;20.05;13.93;;;31.10;65.00;;;;;;4985970;28;20046;-76
2023/09/02 11:32:09;;;;;;;31.05;23.60;;;30.80;65.40;;;;;;4986353;28;20051;-81
2023/09/02 11:34:39;;;;;;;22.20;17.00;;;30.70;66.70;;;;;;4984044;28;20059;-81
2023/09/02 11:37:10;;;;;;;11.60;9.75;;;30.80;66.40;;;;;;4995395;28;20050;-82
2023/09/02 11:39:45;;;;;;;12.63;10.27;;;31.00;65.60;;;;;;4985049;28;20130;-79
2023/09/02 11:42:35;;;;;;;8.88;6.43;;;30.90;67.10;;;;;;4981984;28;20038;-80
2023/09/02 11:45:06;;;;;;;8.85;6.13;;;31.20;63.80;;;;;;4996264;28;20038;-80
2023/09/02 11:47:35;;;;;;;11.73;7.25;;;31.50;64.10;;;;;;4973381;28;20050;-86
2023/09/02 11:50:02;;;;;;;12.68;7.60;;;31.50;70.50;;;;;;4991598;28;20081;-82
2023/09/02 11:52:32;;;;;;;8.43;6.10;;;31.30;71.70;;;;;;4988596;28;20073;-84
2023/09/02 11:55:13;;;;;;;11.90;6.50;;;31.20;68.50;;;;;;4986872;28;20423;-89
2023/09/02 11:57:41;;;;;;;8.85;5.97;;;31.30;63.00;;;;;;4987790;28;20142;-84
2023/09/02 12:00:18;;;;;;;10.10;5.05;;;31.40;65.10;;;;;;4997096;28;20093;-86
2023/09/02 12:02:46;;;;;;;7.53;5.53;;;31.70;62.80;;;;;;4998956;28;20042;-87
2023/09/02 12:05:15;;;;;;;7.03;4.97;;;31.80;62.20;;;;;;4998863;28;20445;-85
2023/09/02 12:07:45;;;;;;;7.15;5.35;;;31.60;62.40;;;;;;4991213;28;20054;-84
2023/09/02 12:10:18;;;;;;;8.05;5.45;;;31.70;62.50;;;;;;4969892;28;20043;-84
2023/09/02 12:13:05;;;;;;;9.30;5.55;;;31.50;64.80;;;;;;4974554;28;20068;-84
2023/09/02 12:15:36;;;;;;;8.35;4.97;;;31.30;62.20;;;;;;4990245;28;20043;-86
2023/09/02 12:18:04;;;;;;;7.10;4.85;;;31.30;62.70;;;;;;4977281;28;20647;-81
2023/09/02 12:20:32;;;;;;;7.40;4.80;;;31.30;61.40;;;;;;4958644;28;20040;-82
2023/09/02 12:23:04;;;;;;;7.55;5.00;;;31.50;60.30;;;;;;4985162;28;20038;-83
2023/09/02 12:25:33;;;;;;;28.13;21.10;;;31.60;60.60;;;;;;4967871;28;20129;-82
2023/09/02 12:28:12;;;;;;;56.30;44.57;;;31.50;61.20;;;;;;4987648;28;20037;-81
2023/09/02 12:30:40;;;;;;;20.55;16.60;;;31.60;64.80;;;;;;4954027;28;20047;-81
2023/09/02 12:33:08;;;;;;;32.30;26.20;;;32.00;62.90;;;;;;4988470;28;20042;-84
2023/09/02 12:35:37;;;;;;;89.38;68.50;;;32.10;61.60;;;;;;4974978;28;20085;-81
2023/09/02 12:38:06;;;;;;;22.88;18.58;;;32.20;64.00;;;;;;4982896;28;20065;-78
2023/09/02 12:40:34;;;;;;;10.18;7.28;;;32.30;59.10;;;;;;4985071;28;20049;-80
2023/09/02 12:43:12;;;;;;;16.33;11.82;;;32.30;59.50;;;;;;4961003;28;20045;-78
2023/09/02 12:45:44;;;;;;;10.82;7.20;;;32.30;58.80;;;;;;4956850;28;20054;-80
2023/09/02 12:48:13;;;;;;;11.45;7.43;;;32.20;58.00;;;;;;4982714;28;20042;-81